Main page
METAR-TAF:

METAR-TAF

Airports :

Wallis, France

Hihifo Airport

latitude: 13-14S, longitude: 176-10W, elevation: 23 m

METAR: missing

Time: 14:32 (02:32 UTC)

Forecast

The report was made 3 hours and 32 minutes ago, at 23:00 UTC
Forecast valid from 22 at 00 UTC to 22 at 24 UTC
Wind 8 kt from the East
Visibility 10 km or more
Scattered clouds at a height of 1800 ft
Temporary
from 22 at 00 UTC to 22 at 24 UTC
Wind 8 kt from variable directions
Visibility: 3000 m
Broken clouds at a height of 1200 ft
Scattered clouds at a height of 1800 ft, Cumulonimbus.
rain showers

TAF: NLWW 212300Z 2200/2224 10008KT 9999 SCT018 TEMPO 2200/2224 VRB08KT 3000 SHRA BKN012 SCT018CB

Weather observations and forecasts of more than 4000 airports (METAR and TAF reports).

The available stations are represented by yellow and red dots on the map.

Hover mouse over dot to see the name of the station.

Then click to see weather observations and forecasts.

To change the map : click on the green buttons with a black cross to zoom in, on the green button with a dash to zoom out, or on the green arrows for adjacent maps.


METAR-TAF: